sensor_id;sensor_type;location;lat;lon;timestamp;pressure;altitude;pressure_sealevel;temperature;humidity
60437;BME280;46289;51.992;4.498;2023-03-14T00:01:14;99036.28;;;10.15;75.21
60437;BME280;46289;51.992;4.498;2023-03-14T00:03:22;99028.94;;;10.20;75.00
60437;BME280;46289;51.992;4.498;2023-03-14T00:05:33;99028.94;;;10.20;75.40
60437;BME280;46289;51.992;4.498;2023-03-14T00:09:56;99032.06;;;10.12;76.22
60437;BME280;46289;51.992;4.498;2023-03-14T00:12:10;99034.16;;;10.07;75.87
60437;BME280;46289;51.992;4.498;2023-03-14T00:14:19;99027.34;;;10.04;75.80
60437;BME280;46289;51.992;4.498;2023-03-14T00:16:30;99037.31;;;9.99;76.60
60437;BME280;46289;51.992;4.498;2023-03-14T00:18:37;99037.31;;;9.99;76.31
60437;BME280;46289;51.992;4.498;2023-03-14T00:20:45;99045.38;;;9.96;76.75
60437;BME280;46289;51.992;4.498;2023-03-14T00:22:55;99032.78;;;9.88;78.09
60437;BME280;46289;51.992;4.498;2023-03-14T00:25:10;99044.41;;;9.84;78.60
60437;BME280;46289;51.992;4.498;2023-03-14T00:27:21;99029.38;;;9.74;79.28
60437;BME280;46289;51.992;4.498;2023-03-14T00:29:26;99042.50;;;9.74;79.35
60437;BME280;46289;51.992;4.498;2023-03-14T00:31:31;99037.88;;;9.64;80.01
60437;BME280;46289;51.992;4.498;2023-03-14T00:33:38;99048.34;;;9.64;80.21
60437;BME280;46289;51.992;4.498;2023-03-14T00:35:52;99038.78;;;9.63;80.32
60437;BME280;46289;51.992;4.498;2023-03-14T00:38:11;99051.72;;;9.66;80.42
60437;BME280;46289;51.992;4.498;2023-03-14T00:40:16;99040.56;;;9.63;80.63
60437;BME280;46289;51.992;4.498;2023-03-14T00:42:24;99037.03;;;9.64;80.70
60437;BME280;46289;51.992;4.498;2023-03-14T00:44:43;99044.22;;;9.60;80.74
60437;BME280;46289;51.992;4.498;2023-03-14T00:46:49;99036.50;;;9.59;81.00
60437;BME280;46289;51.992;4.498;2023-03-14T00:48:54;99054.72;;;9.60;81.07
60437;BME280;46289;51.992;4.498;2023-03-14T00:51:02;99040.44;;;9.52;81.29
60437;BME280;46289;51.992;4.498;2023-03-14T00:53:08;99051.47;;;9.57;81.26
60437;BME280;46289;51.992;4.498;2023-03-14T00:55:14;99063.75;;;9.56;81.62
60437;BME280;46289;51.992;4.498;2023-03-14T00:57:34;99061.31;;;9.53;81.50
60437;BME280;46289;51.992;4.498;2023-03-14T00:59:42;99059.63;;;9.52;81.81
60437;BME280;46289;51.992;4.498;2023-03-14T01:01:50;99070.41;;;9.48;82.11
60437;BME280;46289;51.992;4.498;2023-03-14T01:04:13;99057.28;;;9.48;82.29
60437;BME280;46289;51.992;4.498;2023-03-14T01:06:22;99060.88;;;9.47;82.39
60437;BME280;46289;51.992;4.498;2023-03-14T01:08:27;99049.75;;;9.43;82.77
60437;BME280;46289;51.992;4.498;2023-03-14T01:10:32;99050.66;;;9.42;82.58
60437;BME280;46289;51.992;4.498;2023-03-14T01:12:50;99047.41;;;9.38;83.00
60437;BME280;46289;51.992;4.498;2023-03-14T01:14:55;99018.66;;;9.37;82.96
60437;BME280;46289;51.992;4.498;2023-03-14T01:17:00;99029.34;;;9.34;83.08
60437;BME280;46289;51.992;4.498;2023-03-14T01:19:06;99030.94;;;9.36;83.09
60437;BME280;46289;51.992;4.498;2023-03-14T01:21:16;99029.91;;;9.39;82.90
60437;BME280;46289;51.992;4.498;2023-03-14T01:23:26;99036.31;;;9.35;82.82
60437;BME280;46289;51.992;4.498;2023-03-14T01:25:32;99033.75;;;9.33;82.83
60437;BME280;46289;51.992;4.498;2023-03-14T01:27:40;99044.69;;;9.40;82.33
60437;BME280;46289;51.992;4.498;2023-03-14T01:29:47;99052.88;;;9.35;82.87
60437;BME280;46289;51.992;4.498;2023-03-14T01:31:52;99044.16;;;9.35;82.62
60437;BME280;46289;51.992;4.498;2023-03-14T01:33:57;99041.13;;;9.41;82.52
60437;BME280;46289;51.992;4.498;2023-03-14T01:36:06;99051.50;;;9.42;82.21
60437;BME280;46289;51.992;4.498;2023-03-14T01:38:14;99039.06;;;9.46;81.93
60437;BME280;46289;51.992;4.498;2023-03-14T01:40:21;99055.63;;;9.47;82.09
60437;BME280;46289;51.992;4.498;2023-03-14T01:42:29;99042.72;;;9.43;82.29
60437;BME280;46289;51.992;4.498;2023-03-14T01:44:54;99041.56;;;9.48;81.94
60437;BME280;46289;51.992;4.498;2023-03-14T01:47:01;99043.34;;;9.47;81.89
60437;BME280;46289;51.992;4.498;2023-03-14T01:49:14;99044.72;;;9.53;81.42
60437;BME280;46289;51.992;4.498;2023-03-14T01:51:27;99035.09;;;9.53;81.40
60437;BME280;46289;51.992;4.498;2023-03-14T01:53:34;99028.06;;;9.54;81.48
60437;BME280;46289;51.992;4.498;2023-03-14T01:55:43;99028.81;;;9.56;81.08
60437;BME280;46289;51.992;4.498;2023-03-14T01:57:53;99017.47;;;9.55;80.90
60437;BME280;46289;51.992;4.498;2023-03-14T02:00:08;99015.38;;;9.60;81.04
60437;BME280;46289;51.992;4.498;2023-03-14T02:02:16;99020.22;;;9.54;81.15
60437;BME280;46289;51.992;4.498;2023-03-14T02:04:25;99016.84;;;9.52;80.97
60437;BME280;46289;51.992;4.498;2023-03-14T02:06:44;99010.75;;;9.51;81.24
60437;BME280;46289;51.992;4.498;2023-03-14T02:08:51;99008.03;;;9.53;81.00
60437;BME280;46289;51.992;4.498;2023-03-14T02:10:58;99006.25;;;9.53;80.85
60437;BME280;46289;51.992;4.498;2023-03-14T02:13:05;98997.25;;;9.57;80.59
60437;BME280;46289;51.992;4.498;2023-03-14T02:15:21;99010.34;;;9.57;80.53
60437;BME280;46289;51.992;4.498;2023-03-14T02:17:31;99003.66;;;9.53;80.75
60437;BME280;46289;51.992;4.498;2023-03-14T02:19:48;99001.75;;;9.55;80.72
60437;BME280;46289;51.992;4.498;2023-03-14T02:22:02;98995.88;;;9.52;80.58
60437;BME280;46289;51.992;4.498;2023-03-14T02:24:20;98994.28;;;9.49;80.63
60437;BME280;46289;51.992;4.498;2023-03-14T02:26:34;99008.88;;;9.53;80.54
60437;BME280;46289;51.992;4.498;2023-03-14T02:28:53;99003.94;;;9.49;80.77
60437;BME280;46289;51.992;4.498;2023-03-14T02:30:59;99001.19;;;9.50;80.99
60437;BME280;46289;51.992;4.498;2023-03-14T02:33:09;99003.28;;;9.45;81.30
60437;BME280;46289;51.992;4.498;2023-03-14T02:35:18;99004.31;;;9.42;81.44
60437;BME280;46289;51.992;4.498;2023-03-14T02:37:28;99004.31;;;9.42;81.58
60437;BME280;46289;51.992;4.498;2023-03-14T02:39:40;99007.13;;;9.39;81.92
60437;BME280;46289;51.992;4.498;2023-03-14T02:41:51;99001.69;;;9.42;82.41
60437;BME280;46289;51.992;4.498;2023-03-14T02:43:59;99003.06;;;9.35;83.10
60437;BME280;46289;51.992;4.498;2023-03-14T02:46:05;99001.47;;;9.33;83.46
60437;BME280;46289;51.992;4.498;2023-03-14T02:48:19;98984.03;;;9.32;83.27
60437;BME280;46289;51.992;4.498;2023-03-14T02:50:29;98974.72;;;9.28;83.42
60437;BME280;46289;51.992;4.498;2023-03-14T02:52:39;98987.00;;;9.27;83.72
60437;BME280;46289;51.992;4.498;2023-03-14T02:54:46;98978.19;;;9.28;83.34
60437;BME280;46289;51.992;4.498;2023-03-14T02:56:56;98978.47;;;9.23;83.51
60437;BME280;46289;51.992;4.498;2023-03-14T02:59:06;98987.81;;;9.28;83.55
60437;BME280;46289;51.992;4.498;2023-03-14T03:01:13;98991.81;;;9.33;82.94
60437;BME280;46289;51.992;4.498;2023-03-14T03:03:21;98976.00;;;9.35;82.90
60437;BME280;46289;51.992;4.498;2023-03-14T03:05:26;98970.03;;;9.33;83.00
60437;BME280;46289;51.992;4.498;2023-03-14T03:07:30;98957.84;;;9.32;82.91
60437;BME280;46289;51.992;4.498;2023-03-14T03:09:35;98955.22;;;9.32;83.08
60437;BME280;46289;51.992;4.498;2023-03-14T03:11:40;98981.75;;;9.27;83.07
60437;BME280;46289;51.992;4.498;2023-03-14T03:13:49;98963.50;;;9.26;83.06
60437;BME280;46289;51.992;4.498;2023-03-14T03:15:57;98974.44;;;9.32;82.44
60437;BME280;46289;51.992;4.498;2023-03-14T03:18:02;98963.94;;;9.32;82.75
60437;BME280;46289;51.992;4.498;2023-03-14T03:20:09;98968.31;;;9.32;82.66
60437;BME280;46289;51.992;4.498;2023-03-14T03:22:27;98956.78;;;9.34;82.31
60437;BME280;46289;51.992;4.498;2023-03-14T03:24:37;98971.09;;;9.43;82.21
60437;BME280;46289;51.992;4.498;2023-03-14T03:26:45;98965.53;;;9.35;82.64
60437;BME280;46289;51.992;4.498;2023-03-14T03:28:53;98971.59;;;9.35;82.59
60437;BME280;46289;51.992;4.498;2023-03-14T03:31:06;98961.00;;;9.37;82.09
60437;BME280;46289;51.992;4.498;2023-03-14T03:33:12;98961.88;;;9.37;82.21
60437;BME280;46289;51.992;4.498;2023-03-14T03:35:18;98982.84;;;9.37;82.51
60437;BME280;46289;51.992;4.498;2023-03-14T03:37:26;98962.69;;;9.38;82.24
60437;BME280;46289;51.992;4.498;2023-03-14T03:39:31;98961.00;;;9.37;82.50
60437;BME280;46289;51.992;4.498;2023-03-14T03:41:37;98961.66;;;9.40;82.33
60437;BME280;46289;51.992;4.498;2023-03-14T03:43:45;98960.63;;;9.43;82.15
60437;BME280;46289;51.992;4.498;2023-03-14T03:46:06;98954.72;;;9.39;82.16
60437;BME280;46289;51.992;4.498;2023-03-14T03:48:11;98956.22;;;9.43;82.08
60437;BME280;46289;51.992;4.498;2023-03-14T03:50:19;98962.28;;;9.44;82.27
60437;BME280;46289;51.992;4.498;2023-03-14T03:52:26;98961.31;;;9.45;82.14
60437;BME280;46289;51.992;4.498;2023-03-14T03:54:36;98958.91;;;9.42;82.13
60437;BME280;46289;51.992;4.498;2023-03-14T03:56:43;98961.31;;;9.45;82.17
60437;BME280;46289;51.992;4.498;2023-03-14T03:58:51;98957.88;;;9.44;81.89
60437;BME280;46289;51.992;4.498;2023-03-14T04:01:00;98957.66;;;9.48;81.96
60437;BME280;46289;51.992;4.498;2023-03-14T04:03:10;98964.50;;;9.50;81.95
60437;BME280;46289;51.992;4.498;2023-03-14T04:05:20;98960.41;;;9.46;82.11
60437;BME280;46289;51.992;4.498;2023-03-14T04:07:27;98962.06;;;9.47;81.89
60437;BME280;46289;51.992;4.498;2023-03-14T04:09:32;98970.91;;;9.46;82.31
60437;BME280;46289;51.992;4.498;2023-03-14T04:11:37;98971.09;;;9.43;83.39
60437;BME280;46289;51.992;4.498;2023-03-14T04:13:43;98956.72;;;9.36;84.26
60437;BME280;46289;51.992;4.498;2023-03-14T04:15:51;98965.34;;;9.23;85.78
60437;BME280;46289;51.992;4.498;2023-03-14T04:17:57;98969.34;;;9.16;86.58
60437;BME280;46289;51.992;4.498;2023-03-14T04:20:06;98961.66;;;9.13;87.01
60437;BME280;46289;51.992;4.498;2023-03-14T04:22:13;98965.72;;;9.05;87.85
60437;BME280;46289;51.992;4.498;2023-03-14T04:24:18;98974.53;;;9.04;88.11
60437;BME280;46289;51.992;4.498;2023-03-14T04:26:26;98967.59;;;9.02;88.03
60437;BME280;46289;51.992;4.498;2023-03-14T04:28:31;98958.88;;;9.02;88.34
60437;BME280;46289;51.992;4.498;2023-03-14T04:30:40;98959.38;;;8.94;88.47
60437;BME280;46289;51.992;4.498;2023-03-14T04:32:48;98963.97;;;8.91;89.07
60437;BME280;46289;51.992;4.498;2023-03-14T04:34:53;98959.38;;;8.94;89.23
60437;BME280;46289;51.992;4.498;2023-03-14T04:37:02;98959.59;;;8.91;89.32
60437;BME280;46289;51.992;4.498;2023-03-14T04:39:12;98954.06;;;8.96;89.12
60437;BME280;46289;51.992;4.498;2023-03-14T04:41:17;98951.72;;;8.91;89.27
60437;BME280;46289;51.992;4.498;2023-03-14T04:43:36;98958.75;;;8.91;89.67
60437;BME280;46289;51.992;4.498;2023-03-14T04:45:48;98954.53;;;8.88;90.07
60437;BME280;46289;51.992;4.498;2023-03-14T04:48:26;98964.19;;;8.88;90.16
60437;BME280;46289;51.992;4.498;2023-03-14T04:51:10;98957.91;;;8.90;89.95
60437;BME280;46289;51.992;4.498;2023-03-14T05:00:13;98948.59;;;8.72;91.87
60437;BME280;46289;51.992;4.498;2023-03-14T05:06:20;98948.13;;;8.65;91.96
60437;BME280;46289;51.992;4.498;2023-03-14T05:30:58;99002.00;;;8.55;94.27
60437;BME280;46289;51.992;4.498;2023-03-14T05:37:02;99020.59;;;7.91;92.42
60437;BME280;46289;51.992;4.498;2023-03-14T05:43:37;99046.63;;;7.48;92.48
60437;BME280;46289;51.992;4.498;2023-03-14T07:12:44;99288.56;;;6.50;92.61
60437;BME280;46289;51.992;4.498;2023-03-14T08:35:47;99658.72;;;5.30;91.17
60437;BME280;46289;51.992;4.498;2023-03-14T09:22:28;99842.03;;;6.00;83.61
60437;BME280;46289;51.992;4.498;2023-03-14T09:25:04;99852.72;;;5.92;81.96
60437;BME280;46289;51.992;4.498;2023-03-14T09:27:36;99868.09;;;6.00;81.75
60437;BME280;46289;51.992;4.498;2023-03-14T09:29:59;99873.19;;;6.03;82.67
60437;BME280;46289;51.992;4.498;2023-03-14T09:32:48;99881.41;;;5.92;81.84
60437;BME280;46289;51.992;4.498;2023-03-14T09:35:43;99900.69;;;5.88;81.55
60437;BME280;46289;51.992;4.498;2023-03-14T09:38:44;99915.78;;;5.78;82.93
60437;BME280;46289;51.992;4.498;2023-03-14T09:41:29;99935.78;;;5.27;85.03
60437;BME280;46289;51.992;4.498;2023-03-14T09:57:05;99974.59;;;5.62;86.83
60437;BME280;46289;51.992;4.498;2023-03-14T09:59:34;99981.59;;;5.60;85.81
60437;BME280;46289;51.992;4.498;2023-03-14T10:02:22;99990.81;;;5.70;83.36
60437;BME280;46289;51.992;4.498;2023-03-14T10:17:40;100046.75;;;5.60;82.96
60437;BME280;46289;51.992;4.498;2023-03-14T10:20:03;100066.53;;;5.65;82.74
60437;BME280;46289;51.992;4.498;2023-03-14T10:22:42;100062.84;;;5.72;80.84
60437;BME280;46289;51.992;4.498;2023-03-14T10:24:53;100072.69;;;5.89;81.79
60437;BME280;46289;51.992;4.498;2023-03-14T10:27:19;100090.69;;;5.72;79.35
60437;BME280;46289;51.992;4.498;2023-03-14T10:29:55;100104.66;;;5.69;79.56
60437;BME280;46289;51.992;4.498;2023-03-14T10:32:33;100135.53;;;5.82;80.69
60437;BME280;46289;51.992;4.498;2023-03-14T10:35:25;100121.59;;;5.83;76.89
60437;BME280;46289;51.992;4.498;2023-03-14T10:40:41;100142.03;;;6.23;75.09
60437;BME280;46289;51.992;4.498;2023-03-14T10:46:54;100163.66;;;6.27;73.04
60437;BME280;46289;51.992;4.498;2023-03-14T10:52:26;100189.09;;;6.20;69.90
60437;BME280;46289;51.992;4.498;2023-03-14T10:55:10;100191.94;;;6.12;70.15
60437;BME280;46289;51.992;4.498;2023-03-14T10:57:22;100196.88;;;6.22;70.70
60437;BME280;46289;51.992;4.498;2023-03-14T10:59:34;100208.75;;;6.30;72.84
60437;BME280;46289;51.992;4.498;2023-03-14T11:01:50;100210.28;;;6.37;71.40
60437;BME280;46289;51.992;4.498;2023-03-14T11:04:25;100221.78;;;6.57;71.92
60437;BME280;46289;51.992;4.498;2023-03-14T11:06:50;100222.13;;;6.73;69.62
60437;BME280;46289;51.992;4.498;2023-03-14T11:09:25;100232.94;;;6.87;66.20
60437;BME280;46289;51.992;4.498;2023-03-14T11:12:04;100250.22;;;6.91;68.09
60437;BME280;46289;51.992;4.498;2023-03-14T11:14:31;100247.44;;;6.96;66.80
60437;BME280;46289;51.992;4.498;2023-03-14T11:16:49;100261.81;;;7.33;69.15
60437;BME280;46289;51.992;4.498;2023-03-14T11:19:17;100281.38;;;7.21;66.21
60437;BME280;46289;51.992;4.498;2023-03-14T11:21:31;100278.59;;;7.25;64.93
60437;BME280;46289;51.992;4.498;2023-03-14T11:23:50;100302.56;;;7.13;63.33
60437;BME280;46289;51.992;4.498;2023-03-14T11:26:08;100303.56;;;7.34;62.85
60437;BME280;46289;51.992;4.498;2023-03-14T11:28:18;100307.59;;;7.19;59.60
60437;BME280;46289;51.992;4.498;2023-03-14T11:30:34;100310.81;;;7.26;60.47
60437;BME280;46289;51.992;4.498;2023-03-14T11:32:44;100317.53;;;7.58;61.40
60437;BME280;46289;51.992;4.498;2023-03-14T11:34:52;100328.94;;;7.79;61.47
60437;BME280;46289;51.992;4.498;2023-03-14T11:37:05;100330.59;;;7.33;59.22
60437;BME280;46289;51.992;4.498;2023-03-14T11:39:14;100350.72;;;7.31;56.50
60437;BME280;46289;51.992;4.498;2023-03-14T11:41:25;100350.53;;;7.37;55.66
60437;BME280;46289;51.992;4.498;2023-03-14T11:43:36;100359.00;;;7.19;53.13
60437;BME280;46289;51.992;4.498;2023-03-14T11:45:45;100371.78;;;7.26;55.64
60437;BME280;46289;51.992;4.498;2023-03-14T11:47:57;100361.16;;;7.31;55.35
60437;BME280;46289;51.992;4.498;2023-03-14T11:50:15;100380.13;;;7.38;57.62
60437;BME280;46289;51.992;4.498;2023-03-14T11:52:29;100379.28;;;7.37;56.09
60437;BME280;46289;51.992;4.498;2023-03-14T11:54:43;100391.38;;;7.88;56.79
60437;BME280;46289;51.992;4.498;2023-03-14T11:56:55;100397.19;;;7.48;56.23
60437;BME280;46289;51.992;4.498;2023-03-14T11:59:05;100393.63;;;7.24;55.18
60437;BME280;46289;51.992;4.498;2023-03-14T12:01:12;100396.22;;;7.25;52.08
60437;BME280;46289;51.992;4.498;2023-03-14T12:03:27;100400.31;;;7.58;55.64
60437;BME280;46289;51.992;4.498;2023-03-14T12:05:58;100412.22;;;7.41;53.42
60437;BME280;46289;51.992;4.498;2023-03-14T12:08:45;100426.13;;;7.17;54.06
60437;BME280;46289;51.992;4.498;2023-03-14T12:10:51;100426.16;;;7.15;55.24
60437;BME280;46289;51.992;4.498;2023-03-14T12:13:01;100420.06;;;7.16;55.53
60437;BME280;46289;51.992;4.498;2023-03-14T12:15:20;100424.28;;;6.92;52.44
60437;BME280;46289;51.992;4.498;2023-03-14T12:17:34;100422.16;;;7.05;52.81
60437;BME280;46289;51.992;4.498;2023-03-14T12:19:40;100432.75;;;7.27;52.78
60437;BME280;46289;51.992;4.498;2023-03-14T12:21:49;100432.03;;;7.48;55.07
60437;BME280;46289;51.992;4.498;2023-03-14T12:24:00;100447.34;;;7.59;54.11
60437;BME280;46289;51.992;4.498;2023-03-14T12:26:22;100440.03;;;7.17;51.05
60437;BME280;46289;51.992;4.498;2023-03-14T12:28:32;100451.47;;;7.13;53.07
60437;BME280;46289;51.992;4.498;2023-03-14T12:30:38;100460.59;;;7.28;52.70
60437;BME280;46289;51.992;4.498;2023-03-14T12:35:35;100467.59;;;7.28;53.69
60437;BME280;46289;51.992;4.498;2023-03-14T12:37:44;100476.31;;;7.26;53.66
60437;BME280;46289;51.992;4.498;2023-03-14T12:40:17;100479.59;;;7.07;50.73
60437;BME280;46289;51.992;4.498;2023-03-14T12:42:37;100490.31;;;6.97;51.46
60437;BME280;46289;51.992;4.498;2023-03-14T12:44:48;100487.94;;;7.18;51.04
60437;BME280;46289;51.992;4.498;2023-03-14T12:46:56;100500.97;;;7.19;52.99
60437;BME280;46289;51.992;4.498;2023-03-14T12:49:05;100487.66;;;7.27;54.13
60437;BME280;46289;51.992;4.498;2023-03-14T12:51:13;100489.47;;;7.50;55.20
60437;BME280;46289;51.992;4.498;2023-03-14T12:56:28;100512.88;;;6.72;53.78
60437;BME280;46289;51.992;4.498;2023-03-14T12:58:42;100529.56;;;6.96;50.39
60437;BME280;46289;51.992;4.498;2023-03-14T13:00:54;100535.66;;;6.95;46.72
60437;BME280;46289;51.992;4.498;2023-03-14T13:03:02;100530.84;;;6.82;48.02
60437;BME280;46289;51.992;4.498;2023-03-14T13:05:19;100542.94;;;6.85;47.92
60437;BME280;46289;51.992;4.498;2023-03-14T13:08:03;100546.91;;;6.98;48.67
60437;BME280;46289;51.992;4.498;2023-03-14T13:10:23;100547.13;;;6.91;46.43
60437;BME280;46289;51.992;4.498;2023-03-14T13:12:47;100562.94;;;6.86;47.70
60437;BME280;46289;51.992;4.498;2023-03-14T13:14:53;100576.63;;;6.94;47.76
60437;BME280;46289;51.992;4.498;2023-03-14T13:17:01;100580.84;;;6.98;47.40
60437;BME280;46289;51.992;4.498;2023-03-14T13:19:28;100591.94;;;6.77;48.32
60437;BME280;46289;51.992;4.498;2023-03-14T13:21:35;100601.88;;;6.64;49.75
60437;BME280;46289;51.992;4.498;2023-03-14T13:23:41;100608.03;;;6.62;49.30
60437;BME280;46289;51.992;4.498;2023-03-14T13:26:01;100614.72;;;6.72;49.40
60437;BME280;46289;51.992;4.498;2023-03-14T13:28:11;100628.19;;;6.56;49.98
60437;BME280;46289;51.992;4.498;2023-03-14T13:30:22;100627.19;;;6.60;50.06
60437;BME280;46289;51.992;4.498;2023-03-14T13:32:33;100628.94;;;6.62;49.71
60437;BME280;46289;51.992;4.498;2023-03-14T13:34:38;100637.06;;;6.51;49.67
60437;BME280;46289;51.992;4.498;2023-03-14T13:36:45;100635.19;;;6.54;49.70
60437;BME280;46289;51.992;4.498;2023-03-14T13:38:59;100640.25;;;6.29;48.41
60437;BME280;46289;51.992;4.498;2023-03-14T13:41:07;100649.66;;;6.35;47.94
60437;BME280;46289;51.992;4.498;2023-03-14T13:43:20;100644.81;;;6.52;48.54
60437;BME280;46289;51.992;4.498;2023-03-14T13:45:25;100644.09;;;6.47;48.75
60437;BME280;46289;51.992;4.498;2023-03-14T13:47:32;100666.34;;;6.60;49.58
60437;BME280;46289;51.992;4.498;2023-03-14T13:49:38;100657.00;;;6.53;49.17
60437;BME280;46289;51.992;4.498;2023-03-14T13:51:43;100665.59;;;6.57;49.69
60437;BME280;46289;51.992;4.498;2023-03-14T13:53:50;100665.97;;;6.43;48.61
60437;BME280;46289;51.992;4.498;2023-03-14T13:55:56;100674.44;;;6.51;48.46
60437;BME280;46289;51.992;4.498;2023-03-14T13:58:01;100674.69;;;6.42;48.33
60437;BME280;46289;51.992;4.498;2023-03-14T14:00:18;100676.34;;;6.45;48.51
60437;BME280;46289;51.992;4.498;2023-03-14T14:02:24;100679.59;;;6.53;49.44
60437;BME280;46289;51.992;4.498;2023-03-14T14:04:33;100680.53;;;6.52;49.59
60437;BME280;46289;51.992;4.498;2023-03-14T14:06:45;100683.31;;;6.44;50.97
60437;BME280;46289;51.992;4.498;2023-03-14T14:08:53;100690.22;;;6.47;49.43
60437;BME280;46289;51.992;4.498;2023-03-14T14:11:01;100701.13;;;6.28;46.74
60437;BME280;46289;51.992;4.498;2023-03-14T14:13:10;100714.25;;;6.25;46.38
60437;BME280;46289;51.992;4.498;2023-03-14T14:15:21;100716.75;;;6.30;47.03
60437;BME280;46289;51.992;4.498;2023-03-14T14:17:31;100718.25;;;6.40;47.32
60437;BME280;46289;51.992;4.498;2023-03-14T14:19:44;100726.88;;;6.42;48.42
60437;BME280;46289;51.992;4.498;2023-03-14T14:21:53;100727.13;;;6.33;49.43
60437;BME280;46289;51.992;4.498;2023-03-14T14:23:59;100728.22;;;6.24;50.40
60437;BME280;46289;51.992;4.498;2023-03-14T14:26:14;100739.69;;;6.17;50.21
60437;BME280;46289;51.992;4.498;2023-03-14T14:28:25;100735.09;;;6.27;51.10
60437;BME280;46289;51.992;4.498;2023-03-14T14:30:37;100747.09;;;6.34;51.06
60437;BME280;46289;51.992;4.498;2023-03-14T14:32:55;100759.78;;;6.13;50.74
60437;BME280;46289;51.992;4.498;2023-03-14T14:35:22;100758.59;;;6.27;51.77
60437;BME280;46289;51.992;4.498;2023-03-14T14:37:29;100767.38;;;6.23;51.76
60437;BME280;46289;51.992;4.498;2023-03-14T14:39:34;100769.03;;;6.27;51.38
60437;BME280;46289;51.992;4.498;2023-03-14T14:41:42;100765.72;;;6.19;51.45
60437;BME280;46289;51.992;4.498;2023-03-14T14:43:48;100773.34;;;6.28;50.06
60437;BME280;46289;51.992;4.498;2023-03-14T14:46:06;100786.13;;;6.40;51.68
60437;BME280;46289;51.992;4.498;2023-03-14T14:48:13;100775.50;;;6.48;51.73
60437;BME280;46289;51.992;4.498;2023-03-14T14:50:27;100779.50;;;6.61;51.65
60437;BME280;46289;51.992;4.498;2023-03-14T14:52:41;100791.66;;;6.62;51.17
60437;BME280;46289;51.992;4.498;2023-03-14T14:54:51;100802.25;;;6.56;49.12
60437;BME280;46289;51.992;4.498;2023-03-14T14:57:04;100805.19;;;6.42;49.91
60437;BME280;46289;51.992;4.498;2023-03-14T14:59:20;100809.59;;;6.40;50.20
60437;BME280;46289;51.992;4.498;2023-03-14T15:01:35;100819.28;;;6.35;48.62
60437;BME280;46289;51.992;4.498;2023-03-14T15:03:48;100815.19;;;6.23;47.43
60437;BME280;46289;51.992;4.498;2023-03-14T15:05:57;100820.16;;;6.35;48.48
60437;BME280;46289;51.992;4.498;2023-03-14T15:08:03;100833.78;;;6.47;47.99
60437;BME280;46289;51.992;4.498;2023-03-14T15:10:15;100831.25;;;6.45;47.51
60437;BME280;46289;51.992;4.498;2023-03-14T15:12:20;100848.78;;;6.38;47.86
60437;BME280;46289;51.992;4.498;2023-03-14T15:14:26;100847.56;;;6.53;49.34
60437;BME280;46289;51.992;4.498;2023-03-14T15:16:34;100847.66;;;6.50;49.06
60437;BME280;46289;51.992;4.498;2023-03-14T15:18:47;100858.28;;;6.41;49.26
60437;BME280;46289;51.992;4.498;2023-03-14T15:20:57;100857.56;;;6.34;49.57
60437;BME280;46289;51.992;4.498;2023-03-14T15:23:02;100858.22;;;6.44;49.16
60437;BME280;46289;51.992;4.498;2023-03-14T15:25:08;100851.66;;;6.26;48.40
60437;BME280;46289;51.992;4.498;2023-03-14T15:27:34;100863.38;;;6.08;48.50
60437;BME280;46289;51.992;4.498;2023-03-14T15:29:44;100869.41;;;6.10;47.96
60437;BME280;46289;51.992;4.498;2023-03-14T15:31:51;100879.75;;;6.15;47.70
60437;BME280;46289;51.992;4.498;2023-03-14T15:33:56;100881.44;;;6.16;48.54
60437;BME280;46289;51.992;4.498;2023-03-14T15:36:01;100883.50;;;6.03;48.52
60437;BME280;46289;51.992;4.498;2023-03-14T15:38:11;100889.25;;;6.18;49.35
60437;BME280;46289;51.992;4.498;2023-03-14T15:40:17;100894.38;;;6.22;49.00
60437;BME280;46289;51.992;4.498;2023-03-14T15:42:22;100897.00;;;6.22;48.81
60437;BME280;46289;51.992;4.498;2023-03-14T15:44:27;100904.75;;;6.25;47.69
60437;BME280;46289;51.992;4.498;2023-03-14T15:46:34;100904.44;;;6.39;48.24
60437;BME280;46289;51.992;4.498;2023-03-14T15:48:45;100906.19;;;6.40;49.71
60437;BME280;46289;51.992;4.498;2023-03-14T15:50:50;100912.16;;;6.45;49.53
60437;BME280;46289;51.992;4.498;2023-03-14T15:53:04;100913.31;;;6.32;49.45
60437;BME280;46289;51.992;4.498;2023-03-14T15:55:11;100925.50;;;6.31;50.22
60437;BME280;46289;51.992;4.498;2023-03-14T15:57:17;100918.97;;;6.10;49.72
60437;BME280;46289;51.992;4.498;2023-03-14T15:59:23;100925.84;;;6.14;50.59
60437;BME280;46289;51.992;4.498;2023-03-14T16:01:27;100929.41;;;6.10;50.91
60437;BME280;46289;51.992;4.498;2023-03-14T16:03:38;100932.00;;;6.10;51.60
60437;BME280;46289;51.992;4.498;2023-03-14T16:05:46;100940.66;;;6.14;51.50
60437;BME280;46289;51.992;4.498;2023-03-14T16:07:52;100937.13;;;6.17;51.77
60437;BME280;46289;51.992;4.498;2023-03-14T16:09:57;100937.19;;;6.13;50.79
60437;BME280;46289;51.992;4.498;2023-03-14T16:12:02;100929.63;;;6.01;50.41
60437;BME280;46289;51.992;4.498;2023-03-14T16:14:09;100943.41;;;6.06;51.47
60437;BME280;46289;51.992;4.498;2023-03-14T16:16:14;100949.66;;;5.98;50.17
60437;BME280;46289;51.992;4.498;2023-03-14T16:18:21;100950.63;;;5.92;49.30
60437;BME280;46289;51.992;4.498;2023-03-14T16:20:26;100950.63;;;5.92;49.08
60437;BME280;46289;51.992;4.498;2023-03-14T16:22:48;100954.09;;;5.92;49.75
60437;BME280;46289;51.992;4.498;2023-03-14T16:24:53;100958.38;;;5.98;50.49
60437;BME280;46289;51.992;4.498;2023-03-14T16:26:58;100966.09;;;6.03;51.05
60437;BME280;46289;51.992;4.498;2023-03-14T16:29:03;100968.69;;;6.03;51.49
60437;BME280;46289;51.992;4.498;2023-03-14T16:31:09;100966.22;;;5.97;51.87
60437;BME280;46289;51.992;4.498;2023-03-14T16:33:17;100971.41;;;5.98;51.74
60437;BME280;46289;51.992;4.498;2023-03-14T16:35:22;100978.44;;;5.91;52.01
60437;BME280;46289;51.992;4.498;2023-03-14T16:37:27;100982.94;;;5.83;51.87
60437;BME280;46289;51.992;4.498;2023-03-14T16:39:34;100982.09;;;5.83;51.77
60437;BME280;46289;51.992;4.498;2023-03-14T16:41:59;100990.69;;;5.88;53.11
60437;BME280;46289;51.992;4.498;2023-03-14T16:44:04;100995.97;;;5.85;52.83